createdAt,value
2017-06-21T00:02:14.309Z,7.60
2017-06-21T00:04:43.464Z,9.00
2017-06-21T00:07:12.595Z,7.37
2017-06-21T00:09:41.745Z,9.07
2017-06-21T00:12:10.891Z,8.83
2017-06-21T00:14:40.035Z,8.23
2017-06-21T00:17:09.189Z,8.70
2017-06-21T00:19:38.330Z,7.93
2017-06-21T00:22:07.480Z,7.80
2017-06-21T00:24:36.635Z,8.53
2017-06-21T00:27:05.771Z,8.33
2017-06-21T00:29:34.922Z,8.10
2017-06-21T00:32:04.072Z,9.27
2017-06-21T00:34:33.250Z,8.60
2017-06-21T00:37:02.395Z,8.80
2017-06-21T00:39:31.543Z,8.50
2017-06-21T00:42:00.693Z,8.90
2017-06-21T00:44:29.843Z,8.40
2017-06-21T00:46:58.999Z,8.50
2017-06-21T00:49:28.154Z,9.70
2017-06-21T00:51:57.323Z,8.40
2017-06-21T00:54:26.451Z,8.50
2017-06-21T00:56:55.603Z,8.80
2017-06-21T00:59:24.754Z,8.27
2017-06-21T01:01:53.894Z,8.00
2017-06-21T01:04:23.046Z,7.73
2017-06-21T01:06:52.201Z,8.47
2017-06-21T01:09:21.339Z,9.50
2017-06-21T01:11:50.491Z,9.00
2017-06-21T01:14:19.633Z,8.90
2017-06-21T01:16:48.795Z,8.47
2017-06-21T01:19:17.937Z,8.60
2017-06-21T01:21:47.107Z,8.60
2017-06-21T01:24:16.255Z,8.50
2017-06-21T01:26:45.402Z,8.40
2017-06-21T01:29:14.574Z,8.50
2017-06-21T01:31:43.727Z,7.37
2017-06-21T01:34:12.898Z,8.03
2017-06-21T01:36:42.070Z,8.43
2017-06-21T01:39:11.212Z,8.43
2017-06-21T01:41:40.353Z,8.73
2017-06-21T01:44:09.506Z,8.50
2017-06-21T01:46:38.660Z,8.77
2017-06-21T01:49:07.831Z,8.60
2017-06-21T01:51:36.999Z,8.57
2017-06-21T01:54:06.145Z,8.07
2017-06-21T01:56:35.298Z,7.83
2017-06-21T01:59:04.443Z,7.93
2017-06-21T02:01:33.595Z,7.40
2017-06-21T02:04:02.750Z,8.40
2017-06-21T02:06:31.946Z,7.87
2017-06-21T02:09:01.080Z,8.37
2017-06-21T02:11:30.238Z,8.30
2017-06-21T02:13:59.386Z,8.23
2017-06-21T02:16:29.222Z,8.50
2017-06-21T02:18:58.360Z,7.37
2017-06-21T02:21:27.534Z,7.40
2017-06-21T02:23:56.675Z,7.63
2017-06-21T02:26:25.847Z,8.07
2017-06-21T02:28:54.999Z,8.30
2017-06-21T02:31:24.142Z,8.70
2017-06-21T02:33:53.296Z,8.50
2017-06-21T02:36:22.459Z,7.73
2017-06-21T02:38:51.591Z,7.50
2017-06-21T02:41:20.755Z,8.57
2017-06-21T02:43:49.902Z,8.10
2017-06-21T02:46:19.064Z,7.17
2017-06-21T02:48:48.220Z,8.13
2017-06-21T02:51:17.388Z,9.33
2017-06-21T02:53:46.525Z,8.50
2017-06-21T02:56:15.680Z,7.83
2017-06-21T02:58:44.843Z,8.67
2017-06-21T03:01:13.999Z,9.27
2017-06-21T03:03:43.130Z,8.03
2017-06-21T03:06:12.301Z,8.00
2017-06-21T03:08:41.444Z,8.60
2017-06-21T03:11:10.609Z,8.13
2017-06-21T03:13:39.762Z,9.00
2017-06-21T03:16:08.900Z,8.90
2017-06-21T03:18:38.055Z,8.27
2017-06-21T03:21:07.226Z,8.70
2017-06-21T03:23:36.360Z,7.67
2017-06-21T03:26:05.505Z,8.57
2017-06-21T03:28:34.655Z,8.90
2017-06-21T03:31:03.819Z,8.73
2017-06-21T03:33:32.963Z,8.13
2017-06-21T03:36:02.127Z,8.27
2017-06-21T03:38:31.303Z,9.17
2017-06-21T03:41:00.443Z,7.80
2017-06-21T03:43:29.602Z,8.43
2017-06-21T03:45:58.757Z,7.90
2017-06-21T03:48:27.910Z,8.30
2017-06-21T03:50:57.076Z,8.60
2017-06-21T03:53:26.220Z,8.00
2017-06-21T03:55:55.387Z,7.80
2017-06-21T03:58:24.531Z,7.60
2017-06-21T04:00:53.679Z,8.83
2017-06-21T04:03:22.835Z,7.50
2017-06-21T04:05:51.995Z,7.90
2017-06-21T04:08:21.126Z,7.53
2017-06-21T04:10:50.274Z,8.60
2017-06-21T04:13:19.457Z,8.07
2017-06-21T04:15:48.622Z,7.77
2017-06-21T04:18:17.762Z,7.40
2017-06-21T04:20:46.924Z,8.03
2017-06-21T04:23:16.069Z,7.83
2017-06-21T04:25:45.234Z,8.37
2017-06-21T04:28:14.411Z,8.80
2017-06-21T04:30:43.593Z,7.40
2017-06-21T04:33:12.731Z,7.30
2017-06-21T04:35:41.899Z,7.43
2017-06-21T04:38:11.039Z,7.30
2017-06-21T04:40:40.202Z,7.77
2017-06-21T04:43:09.524Z,7.83
2017-06-21T04:45:38.701Z,6.57
2017-06-21T04:48:07.850Z,6.77
2017-06-21T04:50:37.004Z,6.87
2017-06-21T04:53:06.150Z,7.10
2017-06-21T04:55:35.297Z,7.20
2017-06-21T04:58:04.440Z,7.50
2017-06-21T05:00:33.633Z,7.53
2017-06-21T05:03:02.771Z,7.03
2017-06-21T05:05:31.958Z,6.97
2017-06-21T05:08:01.102Z,6.90
2017-06-21T05:10:30.263Z,6.57
2017-06-21T05:12:59.426Z,6.93
2017-06-21T05:15:28.583Z,6.87
2017-06-21T05:17:57.717Z,6.67
2017-06-21T05:20:26.908Z,6.87
2017-06-21T05:22:56.062Z,6.67
2017-06-21T05:25:25.199Z,6.90
2017-06-21T05:27:54.346Z,7.20
2017-06-21T05:30:23.506Z,7.07
2017-06-21T05:32:52.643Z,6.93
2017-06-21T05:35:21.867Z,6.87
2017-06-21T05:37:51.025Z,6.90
2017-06-21T05:40:20.186Z,6.20
2017-06-21T05:42:49.319Z,7.00
2017-06-21T05:45:18.475Z,6.47
2017-06-21T05:47:47.637Z,6.47
2017-06-21T05:50:16.824Z,5.90
2017-06-21T05:52:45.960Z,6.10
2017-06-21T05:55:15.110Z,6.20
2017-06-21T05:57:44.268Z,6.30
2017-06-21T06:00:13.418Z,6.13
2017-06-21T06:02:42.749Z,6.10
2017-06-21T06:05:11.914Z,6.60
2017-06-21T06:07:41.093Z,6.50
2017-06-21T06:10:10.278Z,6.37
2017-06-21T06:12:39.481Z,6.43
2017-06-21T06:15:10.555Z,7.10
2017-06-21T06:17:39.787Z,6.13
2017-06-21T06:20:08.931Z,6.53
2017-06-21T06:22:38.087Z,6.30
2017-06-21T06:25:07.242Z,6.33
2017-06-21T06:27:36.392Z,6.13
2017-06-21T06:30:05.576Z,6.50
2017-06-21T06:32:34.746Z,7.10
2017-06-21T06:35:03.895Z,6.57
2017-06-21T06:37:33.054Z,5.93
2017-06-21T06:40:02.211Z,5.97
2017-06-21T06:42:31.344Z,6.10
2017-06-21T06:45:00.495Z,5.90
2017-06-21T06:47:29.628Z,6.90
2017-06-21T06:49:58.789Z,6.23
2017-06-21T06:52:27.943Z,6.23
2017-06-21T06:54:57.098Z,5.90
2017-06-21T06:57:26.236Z,6.60
2017-06-21T06:59:55.392Z,7.17
2017-06-21T07:02:24.569Z,6.93
2017-06-21T07:04:53.744Z,6.87
2017-06-21T07:07:22.902Z,5.80
2017-06-21T07:09:52.072Z,6.40
2017-06-21T07:12:21.220Z,6.17
2017-06-21T07:14:50.369Z,6.20
2017-06-21T07:17:19.520Z,6.17
2017-06-21T07:19:48.660Z,6.33
2017-06-21T07:22:17.791Z,5.83
2017-06-21T07:24:46.959Z,6.20
2017-06-21T07:27:16.105Z,6.57
2017-06-21T07:29:45.243Z,6.47
2017-06-21T07:32:14.410Z,6.63
2017-06-21T07:34:43.560Z,5.63
2017-06-21T07:37:12.703Z,6.03
2017-06-21T07:39:41.886Z,6.67
2017-06-21T07:42:11.018Z,6.77
2017-06-21T07:44:40.156Z,6.77
2017-06-21T07:47:09.310Z,6.17
2017-06-21T07:49:38.482Z,5.30
2017-06-21T07:52:07.632Z,6.10
2017-06-21T07:54:36.784Z,6.10
2017-06-21T07:57:05.935Z,6.00
2017-06-21T07:59:35.075Z,6.30
2017-06-21T08:02:04.223Z,5.73
2017-06-21T08:04:33.358Z,6.87
2017-06-21T08:07:02.514Z,6.17
2017-06-21T08:09:31.690Z,6.60
2017-06-21T08:12:00.816Z,6.20
2017-06-21T08:14:29.955Z,5.73
2017-06-21T08:16:59.108Z,6.53
2017-06-21T08:19:28.274Z,6.50
2017-06-21T08:21:57.435Z,6.50
2017-06-21T08:24:26.574Z,6.70
2017-06-21T08:26:55.734Z,7.50
2017-06-21T08:29:24.871Z,5.90
2017-06-21T08:31:54.169Z,6.43
2017-06-21T08:34:23.325Z,6.30
2017-06-21T08:36:52.481Z,6.20
2017-06-21T08:39:21.630Z,7.00
2017-06-21T08:41:50.776Z,7.03
2017-06-21T08:44:19.929Z,7.00
2017-06-21T08:46:49.072Z,7.50
2017-06-21T08:49:18.214Z,6.10
2017-06-21T08:51:47.384Z,6.33
2017-06-21T08:54:16.519Z,6.23
2017-06-21T08:56:45.683Z,6.80
2017-06-21T08:59:14.847Z,6.60
2017-06-21T09:01:44.007Z,6.53
2017-06-21T09:04:13.179Z,7.00
2017-06-21T09:06:42.349Z,6.37
2017-06-21T09:09:11.487Z,6.70
2017-06-21T09:11:40.644Z,6.60
2017-06-21T09:14:09.799Z,6.63
2017-06-21T09:16:38.950Z,6.83
2017-06-21T09:19:08.103Z,7.10
2017-06-21T09:21:37.260Z,6.40
2017-06-21T09:24:06.408Z,6.53
2017-06-21T09:26:35.567Z,6.80
2017-06-21T09:29:04.699Z,7.20
2017-06-21T09:31:33.843Z,6.07
2017-06-21T09:34:02.999Z,6.30
2017-06-21T09:36:32.149Z,6.27
2017-06-21T09:39:01.307Z,6.40
2017-06-21T09:41:30.433Z,6.57
2017-06-21T09:43:59.591Z,6.70
2017-06-21T09:46:28.732Z,6.43
2017-06-21T09:48:57.883Z,6.33
2017-06-21T09:51:27.037Z,5.70
2017-06-21T09:53:56.186Z,5.73
2017-06-21T09:56:25.330Z,6.10
2017-06-21T09:58:54.476Z,6.93
2017-06-21T10:01:23.634Z,6.40
2017-06-21T10:03:52.784Z,6.80
2017-06-21T10:06:21.955Z,5.67
2017-06-21T10:08:51.095Z,6.30
2017-06-21T10:11:20.249Z,6.10
2017-06-21T10:13:49.394Z,6.20
2017-06-21T10:16:18.534Z,6.27
2017-06-21T10:18:47.684Z,5.70
2017-06-21T10:21:16.846Z,5.90
2017-06-21T10:23:45.996Z,6.73
2017-06-21T10:26:15.144Z,6.50
2017-06-21T10:28:44.315Z,6.27
2017-06-21T10:31:13.445Z,5.53
2017-06-21T10:33:42.585Z,6.63
2017-06-21T10:36:11.782Z,5.70
2017-06-21T10:38:40.915Z,5.80
2017-06-21T10:41:10.071Z,6.37
2017-06-21T10:43:39.225Z,5.70
2017-06-21T10:46:08.375Z,5.80
2017-06-21T10:48:37.539Z,5.93
2017-06-21T10:51:06.688Z,5.73
2017-06-21T10:53:35.836Z,5.80
2017-06-21T10:56:04.978Z,5.63
2017-06-21T10:58:34.129Z,5.67
2017-06-21T11:01:03.302Z,5.97
2017-06-21T11:03:32.423Z,6.27
2017-06-21T11:06:01.583Z,5.50
2017-06-21T11:08:30.739Z,5.27
2017-06-21T11:10:59.891Z,5.93
2017-06-21T11:13:29.030Z,5.70
2017-06-21T11:15:58.171Z,6.53
2017-06-21T11:18:27.330Z,5.90
2017-06-21T11:20:56.494Z,5.97
2017-06-21T11:23:25.636Z,5.43
2017-06-21T11:25:54.784Z,6.20
2017-06-21T11:28:23.923Z,5.80
2017-06-21T11:30:53.078Z,5.90
2017-06-21T11:33:22.240Z,6.77
2017-06-21T11:35:51.402Z,5.67
2017-06-21T11:38:20.551Z,6.00
2017-06-21T11:40:49.691Z,6.37
2017-06-21T11:43:18.871Z,6.07
2017-06-21T11:45:48.003Z,7.00
2017-06-21T11:48:17.139Z,6.13
2017-06-21T11:50:46.292Z,6.67
2017-06-21T11:53:15.443Z,5.83
2017-06-21T11:55:44.602Z,5.77
2017-06-21T11:58:13.738Z,5.40
2017-06-21T12:00:42.883Z,6.53
2017-06-21T12:03:12.026Z,5.70
2017-06-21T12:05:41.198Z,6.47
2017-06-21T12:08:10.361Z,6.27
2017-06-21T12:10:39.526Z,6.53
2017-06-21T12:13:08.661Z,6.03
2017-06-21T12:15:37.817Z,6.13
2017-06-21T12:18:06.984Z,6.03
2017-06-21T12:20:36.147Z,6.27
2017-06-21T12:23:05.279Z,5.60
2017-06-21T12:25:34.427Z,5.53
2017-06-21T12:28:03.557Z,6.47
2017-06-21T12:30:32.720Z,4.90
2017-06-21T12:33:01.860Z,5.40
2017-06-21T12:35:31.050Z,6.17
2017-06-21T12:38:00.202Z,5.47
2017-06-21T12:40:29.342Z,5.70
2017-06-21T12:42:58.493Z,5.70
2017-06-21T12:45:27.655Z,5.77
2017-06-21T12:47:56.813Z,10.50
2017-06-21T12:50:25.956Z,5.47
2017-06-21T12:52:55.127Z,5.40
2017-06-21T12:55:24.269Z,6.13
2017-06-21T12:57:53.430Z,5.67
2017-06-21T13:00:22.582Z,6.60
2017-06-21T13:02:51.712Z,6.73
2017-06-21T13:05:20.880Z,6.13
2017-06-21T13:07:50.036Z,6.10
2017-06-21T13:10:19.203Z,5.60
2017-06-21T13:12:48.352Z,6.07
2017-06-21T13:15:17.494Z,6.20
2017-06-21T13:17:46.642Z,6.10
2017-06-21T13:20:15.783Z,5.50
2017-06-21T13:22:44.921Z,6.13
2017-06-21T13:25:14.071Z,5.60
2017-06-21T13:27:43.210Z,6.23
2017-06-21T13:30:12.359Z,6.20
2017-06-21T13:32:41.522Z,6.30
2017-06-21T13:35:10.678Z,6.30
2017-06-21T13:37:39.828Z,6.03
2017-06-21T13:40:08.978Z,5.80
2017-06-21T13:42:38.130Z,6.07
2017-06-21T13:45:07.266Z,5.97
2017-06-21T13:47:36.421Z,6.30
2017-06-21T13:50:05.575Z,6.87
2017-06-21T13:52:34.718Z,6.17
2017-06-21T13:55:03.866Z,6.40
2017-06-21T13:57:33.015Z,6.23
2017-06-21T14:00:02.163Z,7.30
2017-06-21T14:02:31.319Z,6.37
2017-06-21T14:05:00.455Z,6.60
2017-06-21T14:07:29.603Z,6.40
2017-06-21T14:09:58.742Z,6.10
2017-06-21T14:12:27.880Z,6.33
2017-06-21T14:14:57.022Z,6.40
2017-06-21T14:17:26.182Z,6.40
2017-06-21T14:19:55.333Z,6.57
2017-06-21T14:22:24.474Z,6.87
2017-06-21T14:24:53.619Z,6.23
2017-06-21T14:27:22.767Z,7.07
2017-06-21T14:29:51.939Z,6.53
2017-06-21T14:32:21.091Z,6.63
2017-06-21T14:34:50.251Z,6.20
2017-06-21T14:37:19.421Z,7.03
2017-06-21T14:39:48.575Z,6.70
2017-06-21T14:42:17.715Z,6.43
2017-06-21T14:44:46.855Z,6.60
2017-06-21T14:47:16.010Z,6.40
2017-06-21T14:49:45.160Z,6.73
2017-06-21T14:52:14.328Z,6.80
2017-06-21T14:54:43.458Z,6.30
2017-06-21T14:57:12.604Z,6.07
2017-06-21T14:59:41.793Z,6.83
2017-06-21T15:02:10.929Z,6.93
2017-06-21T15:04:40.072Z,6.60
2017-06-21T15:07:09.216Z,7.03
2017-06-21T15:09:38.359Z,5.80
2017-06-21T15:12:07.511Z,6.53
2017-06-21T15:14:36.648Z,6.47
2017-06-21T15:17:05.790Z,7.13
2017-06-21T15:19:34.948Z,6.73
2017-06-21T15:22:04.106Z,7.73
2017-06-21T15:24:33.268Z,6.33
2017-06-21T15:27:02.423Z,5.90
2017-06-21T15:29:31.571Z,6.57
2017-06-21T15:32:00.715Z,6.73
2017-06-21T15:34:29.859Z,6.77
2017-06-21T15:36:59.016Z,6.50
2017-06-21T15:39:28.221Z,6.37
2017-06-21T15:41:57.355Z,5.80
2017-06-21T15:44:26.498Z,6.60
2017-06-21T15:46:55.652Z,6.73
2017-06-21T15:49:24.790Z,7.03
2017-06-21T15:51:53.952Z,6.97
2017-06-21T15:54:23.105Z,6.63
2017-06-21T15:56:52.242Z,6.93
2017-06-21T15:59:21.403Z,6.60
2017-06-21T16:01:50.541Z,6.70
2017-06-21T16:04:19.687Z,6.30
2017-06-21T16:06:48.857Z,6.03
2017-06-21T16:09:18.003Z,6.40
2017-06-21T16:11:47.185Z,6.40
2017-06-21T16:14:16.335Z,6.17
2017-06-21T16:16:45.509Z,6.03
2017-06-21T16:19:14.664Z,6.50
2017-06-21T16:21:43.826Z,6.50
2017-06-21T16:24:13.004Z,6.37
2017-06-21T16:26:42.142Z,6.30
2017-06-21T16:29:11.294Z,6.67
2017-06-21T16:31:40.434Z,6.80
2017-06-21T16:34:09.583Z,6.90
2017-06-21T16:36:39.854Z,6.10
2017-06-21T16:39:08.999Z,6.33
2017-06-21T16:41:38.158Z,6.13
2017-06-21T16:44:07.284Z,7.33
2017-06-21T16:46:36.427Z,6.07
2017-06-21T16:49:05.578Z,6.27
2017-06-21T16:51:34.734Z,7.03
2017-06-21T16:54:03.878Z,6.87
2017-06-21T16:56:33.044Z,6.40
2017-06-21T16:59:02.181Z,6.37
2017-06-21T17:01:31.326Z,6.20
2017-06-21T17:04:00.466Z,6.27
2017-06-21T17:06:29.627Z,6.03
2017-06-21T17:08:58.772Z,5.50
2017-06-21T17:11:27.931Z,6.07
2017-06-21T17:13:57.095Z,5.63
2017-06-21T17:16:26.230Z,5.70
2017-06-21T17:18:55.362Z,5.20
2017-06-21T17:21:24.525Z,6.00
2017-06-21T17:23:53.664Z,5.73
2017-06-21T17:26:22.806Z,5.43
2017-06-21T17:28:51.976Z,5.50
2017-06-21T17:31:21.113Z,5.83
2017-06-21T17:33:50.262Z,7.30
2017-06-21T17:36:19.633Z,5.87
2017-06-21T17:38:48.794Z,5.87
2017-06-21T17:41:17.945Z,5.33
2017-06-21T17:43:47.091Z,5.50
2017-06-21T17:46:16.241Z,5.60
2017-06-21T17:48:45.385Z,5.50
2017-06-21T17:51:14.553Z,5.20
2017-06-21T17:53:43.699Z,5.30
2017-06-21T17:56:12.833Z,5.33
2017-06-21T17:58:41.982Z,5.40
2017-06-21T18:01:11.130Z,5.50
2017-06-21T18:03:40.290Z,5.70
2017-06-21T18:06:09.457Z,5.60
2017-06-21T18:08:38.609Z,4.87
2017-06-21T18:11:07.840Z,4.60
2017-06-21T18:13:36.990Z,5.90
2017-06-21T18:16:06.139Z,5.90
2017-06-21T18:18:35.293Z,5.87
2017-06-21T18:21:04.433Z,5.00
2017-06-21T18:23:33.575Z,5.10
2017-06-21T18:26:02.725Z,5.57
2017-06-21T18:28:31.896Z,4.73
2017-06-21T18:31:01.023Z,5.73
2017-06-21T18:33:30.201Z,5.40
2017-06-21T18:35:59.398Z,5.77
2017-06-21T18:38:28.538Z,5.20
2017-06-21T18:40:57.694Z,5.60
2017-06-21T18:43:26.830Z,5.40
2017-06-21T18:45:55.991Z,4.40
2017-06-21T18:48:25.135Z,5.00
2017-06-21T18:50:54.301Z,4.77
2017-06-21T18:53:23.453Z,5.20
2017-06-21T18:55:52.607Z,4.87
2017-06-21T18:58:21.771Z,5.50
2017-06-21T19:00:50.911Z,5.53
2017-06-21T19:03:20.076Z,5.20
2017-06-21T19:05:49.243Z,5.20
2017-06-21T19:08:18.387Z,5.10
2017-06-21T19:10:47.548Z,6.10
2017-06-21T19:13:16.698Z,5.43
2017-06-21T19:15:45.826Z,5.50
2017-06-21T19:18:14.966Z,5.90
2017-06-21T19:20:45.016Z,5.17
2017-06-21T19:23:14.171Z,5.47
2017-06-21T19:25:43.341Z,5.00
2017-06-21T19:28:12.479Z,4.30
2017-06-21T19:30:41.646Z,4.70
2017-06-21T19:33:10.783Z,4.40
2017-06-21T19:35:39.939Z,6.20
2017-06-21T19:38:09.104Z,4.87
2017-06-21T19:40:38.261Z,5.00
2017-06-21T19:43:07.426Z,5.10
2017-06-21T19:45:37.242Z,5.07
2017-06-21T19:48:06.376Z,5.60
2017-06-21T19:50:35.570Z,4.60
2017-06-21T19:53:04.728Z,6.10
2017-06-21T19:55:33.881Z,7.73
2017-06-21T19:58:03.033Z,7.23
2017-06-21T20:00:32.175Z,6.80
2017-06-21T20:03:01.328Z,8.70
2017-06-21T20:05:30.483Z,5.90
2017-06-21T20:07:59.647Z,5.70
2017-06-21T20:10:28.809Z,5.30
2017-06-21T20:12:57.946Z,6.20
2017-06-21T20:15:27.098Z,4.80
2017-06-21T20:17:56.254Z,4.70
2017-06-21T20:20:25.448Z,5.87
2017-06-21T20:22:54.602Z,5.43
2017-06-21T20:25:23.758Z,5.40
2017-06-21T20:27:52.910Z,4.60
2017-06-21T20:30:22.057Z,5.83
2017-06-21T20:32:51.231Z,5.40
2017-06-21T20:35:20.391Z,5.40
2017-06-21T20:37:49.564Z,5.67
2017-06-21T20:40:18.711Z,5.13
2017-06-21T20:42:47.872Z,5.60
2017-06-21T20:45:17.025Z,6.13
2017-06-21T20:47:46.166Z,5.00
2017-06-21T20:50:15.299Z,6.00
2017-06-21T20:52:44.452Z,4.63
2017-06-21T20:55:13.611Z,5.10
2017-06-21T20:57:42.782Z,5.70
2017-06-21T21:00:11.934Z,5.30
2017-06-21T21:02:41.081Z,5.20
2017-06-21T21:05:10.244Z,5.03
2017-06-21T21:07:39.393Z,5.87
2017-06-21T21:10:08.542Z,5.40
2017-06-21T21:12:37.715Z,5.40
2017-06-21T21:15:06.877Z,5.30
2017-06-21T21:17:36.020Z,5.30
2017-06-21T21:20:05.174Z,8.40
2017-06-21T21:22:34.338Z,5.40
2017-06-21T21:25:03.504Z,5.10
2017-06-21T21:27:32.659Z,5.20
2017-06-21T21:30:01.800Z,6.00
2017-06-21T21:32:30.955Z,5.60
2017-06-21T21:35:00.116Z,5.73
2017-06-21T21:37:29.270Z,4.77
2017-06-21T21:39:58.420Z,6.03
2017-06-21T21:42:27.595Z,7.47
2017-06-21T21:44:56.759Z,6.53
2017-06-21T21:47:27.502Z,5.27
2017-06-21T21:49:56.650Z,4.70
2017-06-21T21:52:25.812Z,7.40
2017-06-21T21:54:54.954Z,7.00
2017-06-21T21:57:24.098Z,7.20
2017-06-21T21:59:53.266Z,6.77
2017-06-21T22:02:22.404Z,7.03
2017-06-21T22:04:51.554Z,7.00
2017-06-21T22:07:20.707Z,7.00
2017-06-21T22:09:49.871Z,7.40
2017-06-21T22:12:19.025Z,7.23
2017-06-21T22:14:48.192Z,8.00
2017-06-21T22:17:17.355Z,7.63
2017-06-21T22:19:46.494Z,7.10
2017-06-21T22:22:15.659Z,6.60
2017-06-21T22:24:44.802Z,6.87
2017-06-21T22:27:13.947Z,6.20
2017-06-21T22:29:43.110Z,6.97
2017-06-21T22:32:12.254Z,6.60
2017-06-21T22:34:41.404Z,6.73
2017-06-21T22:37:10.580Z,6.63
2017-06-21T22:39:39.703Z,6.77
2017-06-21T22:42:08.870Z,6.50
2017-06-21T22:44:38.011Z,5.80
2017-06-21T22:47:07.163Z,6.93
2017-06-21T22:49:36.341Z,5.70
2017-06-21T22:52:05.488Z,5.97
2017-06-21T22:54:34.647Z,6.80
2017-06-21T22:57:03.799Z,6.23
2017-06-21T22:59:33.010Z,6.43
2017-06-21T23:02:02.173Z,6.97
2017-06-21T23:04:31.332Z,6.50
2017-06-21T23:07:00.514Z,6.67
2017-06-21T23:09:29.674Z,6.63
2017-06-21T23:11:58.838Z,7.00
2017-06-21T23:14:27.995Z,10.00
2017-06-21T23:16:57.153Z,13.80
2017-06-21T23:19:26.309Z,16.77
2017-06-21T23:21:55.496Z,16.90
2017-06-21T23:24:24.651Z,15.73
2017-06-21T23:26:53.815Z,13.10
2017-06-21T23:29:22.979Z,11.60
2017-06-21T23:31:52.137Z,11.10
2017-06-21T23:34:21.302Z,9.93
2017-06-21T23:36:50.474Z,8.10
2017-06-21T23:39:19.616Z,7.30
2017-06-21T23:41:48.782Z,7.70
2017-06-21T23:44:17.917Z,7.40
2017-06-21T23:46:47.063Z,6.63
2017-06-21T23:49:16.202Z,8.10
2017-06-21T23:51:45.367Z,7.70
2017-06-21T23:54:14.525Z,7.00
2017-06-21T23:56:43.681Z,7.60
2017-06-21T23:59:12.827Z,7.40
